New York, New York
Traffic Map
Current Weather Conditions
New York, New York
Clear
Clear

Feels Like: 2°
Wind Chill: Ceiling: Unl
Heat Index: Visibility: 10mi
Dew Point: -6° Wind: 13mph
Humidity: 42% Direction: 50° (NE)
Pressure: 30.57in Gusts: 0mph
Raw Report DataKJRB 170355Z AUTO 05011KT 10SM CLR 06/M06 A3057 RMK AO1
Traffic Incident Summary
Active as of:
Severity:
Category:
InformationThere was an issue retrieving the traffic information for this location. Please try a different location or try again shortly.
Advertisements
At Last! Intellicast now available for iPhone and Android